^^
Datos históricos de la estación: Murcia-Puente Tocinos
Diario Informe para Junio 15, 2019 Unidades:  Métrico    Inglés   Ambas
Diario Semanal Mensual Anual Configurable
  Máximo: Mínimo: Media:
Temperatura: 30.5 °C 21.6 °C 25.2 °C
Punto de rocio: 12.8 °C 4.6 °C 7.4 °C
Humedad: 51% 24% 33%
Velocidad viento: 25.7km/h 3.2km/h 12.1km/h
Racha viento: 51.5km/h - -
Viento- - SSW
Presión: 1016.5 hPa 1011.5 hPa -
Precipitación: 0.0 mm    
Historical Graphs
 
 
Tabla de datos para Junio 15, 2019
Hora Temperatura Punto de rocio Presión Viento Velocidad viento Racha viento Humedad Intensidad lluvia(por hora) Nubes
00:00 24.4 °C 12.0 °C 1011.5 hPa SSW 8.0 km/h 11.3 km/h 46% 0.0 mm RA
00:05 24.3 °C 12.3 °C 1011.7 hPa SSW 8.0 km/h 14.5 km/h 47% 0.0 mm RA
00:10 24.2 °C 12.1 °C 1011.7 hPa SSW 8.0 km/h 14.5 km/h 47% 0.0 mm CLR
00:15 24.0 °C 12.0 °C 1011.7 hPa SSW 8.0 km/h 11.3 km/h 47% 0.0 mm CLR
00:20 23.9 °C 12.2 °C 1011.8 hPa SW 8.0 km/h 12.9 km/h 48% 0.0 mm CLR
00:25 23.9 °C 12.2 °C 1011.8 hPa SW 8.0 km/h 9.7 km/h 48% 0.0 mm CLR
00:29 23.8 °C 12.1 °C 1011.8 hPa SW 5.8 km/h 7.4 km/h 48% 0.0 mm CLR
00:35 23.8 °C 12.1 °C 1012.0 hPa SW 4.8 km/h 9.7 km/h 48% 0.0 mm CLR
00:40 23.8 °C 12.4 °C 1012.0 hPa SW 3.2 km/h 11.3 km/h 49% 0.0 mm CLR
00:45 23.8 °C 12.4 °C 1012.0 hPa SW 3.2 km/h 9.7 km/h 49% 0.0 mm CLR
00:50 23.8 °C 12.7 °C 1012.1 hPa WSW 4.8 km/h 11.3 km/h 50% 0.0 mm CLR
00:55 23.6 °C 12.6 °C 1012.1 hPa West 4.8 km/h 11.3 km/h 50% 0.0 mm CLR
00:59 23.5 °C 12.8 °C 1012.1 hPa WSW 6.4 km/h 9.3 km/h 51% 0.0 mm CLR
01:05 23.4 °C 12.4 °C 1012.0 hPa WSW 8.0 km/h 12.9 km/h 50% 0.0 mm CLR
01:10 23.3 °C 12.3 °C 1012.0 hPa SW 8.0 km/h 9.7 km/h 50% 0.0 mm CLR
01:15 23.2 °C 12.5 °C 1012.0 hPa SW 8.0 km/h 9.7 km/h 51% 0.0 mm CLR
01:20 23.2 °C 12.5 °C 1012.1 hPa SW 8.0 km/h 12.9 km/h 51% 0.0 mm CLR
01:25 23.1 °C 12.4 °C 1012.1 hPa SSW 8.0 km/h 12.9 km/h 51% 0.0 mm CLR
01:30 23.1 °C 12.4 °C 1012.1 hPa SSW 8.0 km/h 14.5 km/h 51% 0.0 mm CLR
01:35 23.1 °C 12.1 °C 1012.0 hPa SW 8.0 km/h 12.9 km/h 50% 0.0 mm CLR
01:40 23.4 °C 11.4 °C 1012.0 hPa WSW 8.0 km/h 16.1 km/h 47% 0.0 mm CLR
01:45 23.6 °C 10.6 °C 1012.0 hPa West 8.0 km/h 14.5 km/h 44% 0.0 mm CLR
01:49 23.9 °C 9.5 °C 1012.0 hPa West 8.7 km/h 18.5 km/h 40% 0.0 mm CLR
01:55 24.1 °C 8.9 °C 1012.0 hPa West 9.7 km/h 14.5 km/h 38% 0.0 mm CLR
02:00 24.2 °C 8.6 °C 1012.0 hPa West 8.0 km/h 20.9 km/h 37% 0.0 mm CLR
02:05 24.1 °C 8.1 °C 1012.0 hPa West 8.0 km/h 16.1 km/h 36% 0.0 mm CLR
02:10 24.2 °C 7.3 °C 1012.0 hPa West 9.7 km/h 16.1 km/h 34% 0.0 mm CLR
02:15 24.2 °C 7.3 °C 1012.0 hPa West 9.7 km/h 12.9 km/h 34% 0.0 mm CLR
02:20 24.2 °C 6.9 °C 1012.4 hPa WSW 8.0 km/h 14.5 km/h 33% 0.0 mm CLR
02:25 24.3 °C 6.6 °C 1012.4 hPa WSW 8.0 km/h 12.9 km/h 32% 0.0 mm CLR
02:30 24.3 °C 6.6 °C 1012.4 hPa WSW 8.0 km/h 9.7 km/h 32% 0.0 mm CLR
02:34 24.3 °C 6.6 °C 1012.5 hPa West 6.4 km/h 13.0 km/h 32% 0.0 mm CLR
02:40 24.2 °C 6.5 °C 1012.5 hPa West 8.0 km/h 11.3 km/h 32% 0.0 mm CLR
02:45 24.2 °C 6.0 °C 1012.5 hPa NW 6.9 km/h 18.5 km/h 31% 0.0 mm CLR
02:50 24.2 °C 5.5 °C 1012.4 hPa WNW 9.7 km/h 24.1 km/h 30% 0.0 mm CLR
02:55 24.1 °C 5.4 °C 1012.4 hPa WNW 9.7 km/h 33.8 km/h 30% 0.0 mm CLR
03:00 24.1 °C 5.4 °C 1012.4 hPa WNW 14.5 km/h 27.4 km/h 30% 0.0 mm CLR
03:05 24.0 °C 5.3 °C 1012.3 hPa WNW 14.5 km/h 30.6 km/h 30% 0.0 mm CLR
03:10 23.9 °C 4.8 °C 1012.3 hPa WNW 19.3 km/h 48.3 km/h 29% 0.0 mm CLR
03:15 23.9 °C 4.8 °C 1012.3 hPa WNW 19.3 km/h 51.5 km/h 29% 0.0 mm CLR
03:20 23.9 °C 4.8 °C 1012.3 hPa WNW 22.5 km/h 40.2 km/h 29% 0.0 mm CLR
03:25 23.8 °C 4.7 °C 1012.3 hPa WNW 22.5 km/h 38.6 km/h 29% 0.0 mm CLR
03:30 23.8 °C 4.7 °C 1012.3 hPa WNW 19.3 km/h 30.6 km/h 29% 0.0 mm CLR
03:34 23.7 °C 4.6 °C 1012.5 hPa WNW 19.0 km/h 29.8 km/h 29% 0.0 mm CLR
03:40 23.7 °C 5.1 °C 1012.5 hPa WNW 19.3 km/h 35.4 km/h 30% 0.0 mm CLR
03:44 23.6 °C 5.0 °C 1012.5 hPa WSW 19.0 km/h 33.3 km/h 30% 0.0 mm CLR
03:50 23.5 °C 4.9 °C 1012.6 hPa West 19.3 km/h 27.4 km/h 30% 0.0 mm CLR
03:55 23.4 °C 4.8 °C 1012.6 hPa West 19.3 km/h 33.8 km/h 30% 0.0 mm CLR
04:00 23.4 °C 5.3 °C 1012.6 hPa West 14.5 km/h 25.7 km/h 31% 0.0 mm CLR
04:04 23.3 °C 5.2 °C 1012.7 hPa West 14.0 km/h 25.9 km/h 31% 0.0 mm CLR
04:10 23.3 °C 5.2 °C 1012.7 hPa West 14.5 km/h 25.7 km/h 31% 0.0 mm CLR
04:15 23.2 °C 5.1 °C 1012.7 hPa West 14.5 km/h 22.5 km/h 31% 0.0 mm CLR
04:20 23.1 °C 5.1 °C 1013.0 hPa West 11.3 km/h 22.5 km/h 31% 0.0 mm CLR
04:25 23.1 °C 5.1 °C 1013.0 hPa WSW 11.3 km/h 32.2 km/h 31% 0.0 mm CLR
04:29 22.9 °C 5.3 °C 1013.0 hPa WNW 13.7 km/h 24.1 km/h 32% 0.0 mm CLR
04:35 22.9 °C 5.3 °C 1013.1 hPa West 12.9 km/h 29.0 km/h 32% 0.0 mm CLR
04:40 22.8 °C 5.2 °C 1013.1 hPa West 16.1 km/h 30.6 km/h 32% 0.0 mm CLR
04:45 22.7 °C 5.2 °C 1013.1 hPa West 16.1 km/h 33.8 km/h 32% 0.0 mm CLR
04:50 22.7 °C 5.6 °C 1013.2 hPa West 14.5 km/h 27.4 km/h 33% 0.0 mm CLR
04:54 22.7 °C 5.6 °C 1013.2 hPa WNW 14.8 km/h 28.6 km/h 33% 0.0 mm CLR
05:00 22.6 °C 5.5 °C 1013.2 hPa West 16.1 km/h 32.2 km/h 33% 0.0 mm CLR
05:05 22.6 °C 5.5 °C 1013.2 hPa WNW 16.1 km/h 29.0 km/h 33% 0.0 mm CLR
05:10 22.5 °C 5.8 °C 1013.2 hPa WNW 12.9 km/h 24.1 km/h 34% 0.0 mm CLR
05:14 22.4 °C 5.8 °C 1013.2 hPa WNW 13.0 km/h 27.8 km/h 34% 0.0 mm CLR
05:20 22.4 °C 5.8 °C 1013.3 hPa West 12.9 km/h 24.1 km/h 34% 0.0 mm CLR
05:25 22.4 °C 6.2 °C 1013.3 hPa WNW 12.9 km/h 27.4 km/h 35% 0.0 mm CLR
05:30 22.3 °C 6.1 °C 1013.3 hPa WNW 11.3 km/h 22.5 km/h 35% 0.0 mm CLR
05:35 22.3 °C 6.1 °C 1013.6 hPa West 11.3 km/h 27.4 km/h 35% 0.0 mm CLR
05:40 22.2 °C 6.4 °C 1013.6 hPa West 11.3 km/h 22.5 km/h 36% 0.0 mm CLR
05:45 22.2 °C 6.4 °C 1013.6 hPa West 11.3 km/h 22.5 km/h 36% 0.0 mm CLR
05:50 22.1 °C 6.3 °C 1013.7 hPa West 11.3 km/h 22.5 km/h 36% 0.0 mm CLR
05:55 22.1 °C 6.3 °C 1013.7 hPa West 11.3 km/h 20.9 km/h 36% 0.0 mm CLR
06:00 22.0 °C 6.2 °C 1013.7 hPa West 11.3 km/h 24.1 km/h 36% 0.0 mm CLR
06:05 21.9 °C 6.2 °C 1013.8 hPa West 11.3 km/h 16.1 km/h 36% 0.0 mm CLR
06:10 21.9 °C 6.2 °C 1013.8 hPa West 9.7 km/h 19.3 km/h 36% 0.0 mm CLR
06:15 21.9 °C 6.2 °C 1013.8 hPa WSW 9.7 km/h 22.5 km/h 36% 0.0 mm CLR
06:20 21.9 °C 6.2 °C 1014.0 hPa West 12.9 km/h 27.4 km/h 36% 0.0 mm CLR
06:24 21.9 °C 6.2 °C 1014.0 hPa West 13.0 km/h 16.7 km/h 36% 0.0 mm CLR
06:30 21.8 °C 6.1 °C 1014.0 hPa West 11.3 km/h 16.1 km/h 36% 0.0 mm CLR
06:35 21.8 °C 6.1 °C 1014.3 hPa WSW 11.3 km/h 19.3 km/h 36% 0.0 mm CLR
06:40 21.7 °C 5.9 °C 1014.3 hPa WSW 9.7 km/h 17.7 km/h 36% 0.0 mm CLR
06:45 21.7 °C 5.9 °C 1014.3 hPa WSW 9.7 km/h 16.1 km/h 36% 0.0 mm CLR
06:49 21.7 °C 5.9 °C 1014.5 hPa SW 9.5 km/h 11.1 km/h 36% 0.0 mm CLR
06:55 21.7 °C 5.9 °C 1014.5 hPa WSW 9.7 km/h 14.5 km/h 36% 0.0 mm CLR
07:00 21.6 °C 5.9 °C 1014.5 hPa West 9.7 km/h 16.1 km/h 36% 0.0 mm CLR
07:05 21.6 °C 5.5 °C 1014.6 hPa WSW 9.7 km/h 19.3 km/h 35% 0.0 mm CLR
07:10 21.6 °C 5.9 °C 1014.6 hPa WSW 11.3 km/h 25.7 km/h 36% 0.0 mm CLR
07:15 21.6 °C 5.9 °C 1014.6 hPa WSW 11.3 km/h 19.3 km/h 36% 0.0 mm CLR
07:19 21.6 °C 5.9 °C 1014.6 hPa SW 9.5 km/h 13.0 km/h 36% 0.0 mm CLR
07:25 21.6 °C 5.5 °C 1014.6 hPa WSW 9.7 km/h 30.6 km/h 35% 0.0 mm CLR
07:30 21.6 °C 5.5 °C 1014.6 hPa WSW 12.9 km/h 19.3 km/h 35% 0.0 mm CLR
07:34 21.7 °C 5.6 °C 1014.7 hPa WSW 13.0 km/h 16.7 km/h 35% 0.0 mm CLR
07:40 21.8 °C 5.6 °C 1014.7 hPa WSW 12.9 km/h 25.7 km/h 35% 0.0 mm CLR
07:44 21.8 °C 5.7 °C 1014.7 hPa WSW 12.2 km/h 22.2 km/h 35% 0.0 mm CLR
07:50 21.8 °C 5.7 °C 1015.0 hPa WSW 12.9 km/h 20.9 km/h 35% 0.0 mm CLR
07:55 21.9 °C 6.2 °C 1015.0 hPa WSW 12.9 km/h 16.1 km/h 36% 0.0 mm CLR
07:59 21.8 °C 6.1 °C 1015.0 hPa WNW 8.7 km/h 17.2 km/h 36% 0.0 mm CLR
08:04 21.8 °C 5.7 °C 1015.2 hPa West 8.7 km/h 14.8 km/h 35% 0.0 mm CLR
08:10 21.9 °C 6.2 °C 1015.2 hPa WSW 9.7 km/h 16.1 km/h 36% 0.0 mm CLR
08:15 22.0 °C 5.8 °C 1015.2 hPa WSW 9.7 km/h 17.7 km/h 35% 0.0 mm CLR
08:19 22.1 °C 5.9 °C 1015.3 hPa SW 10.0 km/h 14.8 km/h 35% 0.0 mm CLR
08:25 22.2 °C 6.0 °C 1015.3 hPa WSW 9.7 km/h 24.1 km/h 35% 0.0 mm CLR
08:30 22.3 °C 5.7 °C 1015.3 hPa West 11.3 km/h 19.3 km/h 34% 0.0 mm CLR
08:35 22.4 °C 5.8 °C 1015.5 hPa West 11.3 km/h 24.1 km/h 34% 0.0 mm CLR
08:39 22.4 °C 5.8 °C 1015.5 hPa WNW 13.7 km/h 24.1 km/h 34% 0.0 mm CLR
08:44 22.4 °C 5.8 °C 1015.5 hPa WSW 13.7 km/h 29.6 km/h 34% 0.0 mm CLR
08:50 22.4 °C 5.7 °C 1015.7 hPa West 14.5 km/h 29.0 km/h 34% 0.0 mm CLR
08:54 22.3 °C 5.7 °C 1015.7 hPa West 14.0 km/h 27.8 km/h 34% 0.0 mm CLR
08:59 22.4 °C 5.8 °C 1015.7 hPa West 17.2 km/h 25.1 km/h 34% 0.0 mm CLR
09:04 22.3 °C 5.7 °C 1015.9 hPa West 17.2 km/h 29.6 km/h 34% 0.0 mm CLR
09:10 22.3 °C 5.7 °C 1015.9 hPa West 19.3 km/h 33.8 km/h 34% 0.0 mm CLR
09:14 22.3 °C 5.7 °C 1015.9 hPa WNW 18.0 km/h 27.8 km/h 34% 0.0 mm CLR
09:19 22.4 °C 5.8 °C 1016.1 hPa West 19.0 km/h 28.2 km/h 34% 0.0 mm CLR
09:24 22.6 °C 5.9 °C 1016.1 hPa WNW 19.0 km/h 29.6 km/h 34% 0.0 mm CLR
09:30 22.8 °C 6.1 °C 1016.1 hPa WNW 16.1 km/h 29.0 km/h 34% 0.0 mm CLR
09:34 22.7 °C 6.0 °C 1016.2 hPa West 16.4 km/h 24.1 km/h 34% 0.0 mm CLR
09:39 22.7 °C 5.6 °C 1016.2 hPa West 20.1 km/h 33.3 km/h 33% 0.0 mm CLR
09:44 22.7 °C 5.6 °C 1016.2 hPa WNW 20.1 km/h 40.7 km/h 33% 0.0 mm CLR
09:49 22.7 °C 5.6 °C 1016.3 hPa NW 25.1 km/h 35.9 km/h 33% 0.0 mm CLR
09:55 22.8 °C 5.7 °C 1016.3 hPa WNW 25.7 km/h 41.8 km/h 33% 0.0 mm CLR
09:59 22.8 °C 5.7 °C 1016.3 hPa WNW 23.3 km/h 31.5 km/h 33% 0.0 mm CLR
10:04 23.0 °C 6.3 °C 1016.4 hPa NW 23.3 km/h 35.2 km/h 34% 0.0 mm CLR
10:10 23.1 °C 6.4 °C 1016.4 hPa WNW 19.3 km/h 32.2 km/h 34% 0.0 mm CLR
10:14 23.2 °C 6.1 °C 1016.4 hPa WNW 18.3 km/h 27.8 km/h 33% 0.0 mm CLR
10:19 23.3 °C 6.1 °C 1016.5 hPa West 19.0 km/h 35.2 km/h 33% 0.0 mm CLR
10:25 23.3 °C 6.1 °C 1016.5 hPa WNW 19.3 km/h 32.2 km/h 33% 0.0 mm CLR
10:29 23.5 °C 6.3 °C 1016.5 hPa West 19.0 km/h 24.1 km/h 33% 0.0 mm CLR
10:35 23.6 °C 5.9 °C 1016.5 hPa WNW 19.3 km/h 33.8 km/h 32% 0.0 mm CLR
10:39 23.6 °C 6.4 °C 1016.5 hPa NW 18.3 km/h 22.2 km/h 33% 0.0 mm CLR
10:44 23.7 °C 6.4 °C 1016.5 hPa WNW 18.3 km/h 29.6 km/h 33% 0.0 mm CLR
10:49 23.9 °C 6.2 °C 1016.4 hPa WNW 17.2 km/h 16.7 km/h 32% 0.0 mm CLR
10:54 23.9 °C 5.7 °C 1016.4 hPa WNW 17.2 km/h 24.1 km/h 31% 0.0 mm CLR
10:59 24.1 °C 6.4 °C 1016.4 hPa West 15.6 km/h 20.4 km/h 32% 0.0 mm CLR
11:05 24.1 °C 5.9 °C 1016.3 hPa WNW 14.5 km/h 27.4 km/h 31% 0.0 mm CLR
11:10 24.2 °C 6.0 °C 1016.3 hPa WNW 16.1 km/h 25.7 km/h 31% 0.0 mm CLR
11:15 24.4 °C 6.2 °C 1016.3 hPa West 16.1 km/h 25.7 km/h 31% 0.0 mm CLR
11:19 24.7 °C 5.9 °C 1016.3 hPa WSW 14.0 km/h 18.5 km/h 30% 0.0 mm CLR
11:25 24.7 °C 5.9 °C 1016.3 hPa WNW 14.0 km/h 13.7 km/h 30% 0.0 mm CLR
11:29 24.8 °C 6.5 °C 1016.3 hPa NW 11.9 km/h 20.4 km/h 31% 0.0 mm CLR
11:34 24.8 °C 6.5 °C 1016.3 hPa West 11.9 km/h 20.9 km/h 31% 0.0 mm CLR
11:39 24.9 °C 6.1 °C 1016.3 hPa West 13.0 km/h 20.1 km/h 30% 0.0 mm CLR
11:44 25.0 °C 6.2 °C 1016.3 hPa West 13.0 km/h 20.4 km/h 30% 0.0 mm CLR
11:49 25.2 °C 5.9 °C 1016.2 hPa West 13.7 km/h 22.2 km/h 29% 0.0 mm CLR
11:54 25.3 °C 6.0 °C 1016.2 hPa West 13.7 km/h 22.2 km/h 29% 0.0 mm CLR
11:59 25.3 °C 6.0 °C 1016.2 hPa WSW 13.0 km/h 20.4 km/h 29% 0.0 mm CLR
12:04 25.7 °C 6.3 °C 1016.0 hPa WSW 13.0 km/h 18.5 km/h 29% 0.0 mm CLR
12:09 25.8 °C 6.4 °C 1016.0 hPa WNW 10.0 km/h 16.7 km/h 29% 0.0 mm CLR
12:14 26.1 °C 6.2 °C 1016.0 hPa West 10.0 km/h 22.2 km/h 28% 0.0 mm CLR
12:19 25.9 °C 6.0 °C 1016.1 hPa WSW 11.9 km/h 22.2 km/h 28% 0.0 mm CLR
12:24 26.2 °C 6.2 °C 1016.1 hPa SSW 11.9 km/h 14.8 km/h 28% 0.0 mm CLR
12:29 26.4 °C 6.4 °C 1016.1 hPa WNW 8.7 km/h 12.2 km/h 28% 0.0 mm CLR
12:34 26.2 °C 6.2 °C 1015.9 hPa WNW 8.7 km/h 16.7 km/h 28% 0.0 mm CLR
12:39 26.2 °C 6.2 °C 1015.9 hPa West 10.3 km/h 11.1 km/h 28% 0.0 mm CLR
12:45 26.3 °C 6.3 °C 1015.9 hPa WSW 11.3 km/h 17.7 km/h 28% 0.0 mm CLR
12:49 26.3 °C 6.3 °C 1015.9 hPa South 10.3 km/h 16.7 km/h 28% 0.0 mm CLR
12:54 26.4 °C 6.4 °C 1015.9 hPa South 10.3 km/h 11.1 km/h 28% 0.0 mm CLR
12:59 26.5 °C 6.0 °C 1015.9 hPa WNW 8.7 km/h 8.7 km/h 27% 0.0 mm CLR
13:04 26.8 °C 6.2 °C 1015.8 hPa WNW 8.7 km/h 13.7 km/h 27% 0.0 mm CLR
13:09 26.8 °C 6.2 °C 1015.8 hPa SSW 7.6 km/h 14.8 km/h 27% 0.0 mm CLR
13:14 26.9 °C 6.3 °C 1015.8 hPa WNW 7.6 km/h 7.4 km/h 27% 0.0 mm CLR
13:19 27.1 °C 6.5 °C 1015.6 hPa West 7.6 km/h 8.7 km/h 27% 0.0 mm CLR
13:24 27.3 °C 6.7 °C 1015.6 hPa NNW 7.6 km/h 9.3 km/h 27% 0.0 mm CLR
13:29 27.5 °C 6.8 °C 1015.6 hPa NNW 5.8 km/h 11.1 km/h 27% 0.0 mm CLR
13:35 27.7 °C 6.4 °C 1015.5 hPa SSW 4.8 km/h 20.9 km/h 26% 0.0 mm CLR
13:39 27.7 °C 6.4 °C 1015.5 hPa SW 8.4 km/h 18.5 km/h 26% 0.0 mm CLR
13:44 27.4 °C 6.2 °C 1015.5 hPa SW 8.4 km/h 11.1 km/h 26% 0.0 mm CLR
13:50 27.4 °C 6.2 °C 1015.3 hPa WSW 9.7 km/h 9.7 km/h 26% 0.0 mm CLR
13:55 27.6 °C 6.4 °C 1015.3 hPa SW 9.7 km/h 14.5 km/h 26% 0.0 mm CLR
13:59 27.9 °C 6.6 °C 1015.3 hPa West 5.8 km/h 13.0 km/h 26% 0.0 mm CLR
14:04 28.0 °C 6.1 °C 1015.3 hPa West 5.8 km/h 9.3 km/h 25% 0.0 mm CLR
14:09 28.1 °C 6.2 °C 1015.3 hPa West 6.4 km/h 9.3 km/h 25% 0.0 mm CLR
14:14 28.3 °C 6.4 °C 1015.3 hPa NW 6.4 km/h 10.3 km/h 25% 0.0 mm CLR
14:19 28.4 °C 6.4 °C 1014.9 hPa NW 5.8 km/h 13.0 km/h 25% 0.0 mm CLR
14:24 28.5 °C 6.6 °C 1014.9 hPa WNW 5.8 km/h 11.1 km/h 25% 0.0 mm CLR
14:29 28.3 °C 6.4 °C 1014.9 hPa NW 8.4 km/h 14.8 km/h 25% 0.0 mm CLR
14:34 28.5 °C 6.6 °C 1014.8 hPa NW 8.4 km/h 11.1 km/h 25% 0.0 mm CLR
14:39 28.8 °C 6.8 °C 1014.8 hPa NE 7.6 km/h 11.1 km/h 25% 0.0 mm CLR
14:44 28.8 °C 6.8 °C 1014.8 hPa WNW 7.6 km/h 11.1 km/h 25% 0.0 mm CLR
14:50 28.9 °C 6.9 °C 1014.6 hPa West 8.0 km/h 16.1 km/h 25% 0.0 mm CLR
14:54 28.9 °C 6.9 °C 1014.6 hPa WNW 7.6 km/h 11.1 km/h 25% 0.0 mm CLR
14:59 29.2 °C 7.2 °C 1014.6 hPa NW 8.4 km/h 13.0 km/h 25% 0.0 mm CLR
15:04 29.3 °C 6.6 °C 1014.3 hPa WNW 8.4 km/h 13.0 km/h 24% 0.0 mm CLR
15:09 29.6 °C 6.9 °C 1014.3 hPa West 8.4 km/h 12.2 km/h 24% 0.0 mm CLR
15:14 29.4 °C 6.7 °C 1014.3 hPa WNW 8.4 km/h 7.4 km/h 24% 0.0 mm CLR
15:19 29.7 °C 6.9 °C 1014.1 hPa North 8.4 km/h 13.0 km/h 24% 0.0 mm CLR
15:24 29.9 °C 7.1 °C 1014.1 hPa North 8.4 km/h 11.1 km/h 24% 0.0 mm CLR
15:29 30.0 °C 7.2 °C 1014.1 hPa WNW 6.4 km/h 9.5 km/h 24% 0.0 mm CLR
15:34 29.9 °C 7.1 °C 1014.0 hPa South 6.4 km/h 9.3 km/h 24% 0.0 mm CLR
15:40 30.0 °C 7.8 °C 1014.0 hPa WNW 8.0 km/h 16.1 km/h 25% 0.0 mm CLR
15:44 30.3 °C 7.5 °C 1014.0 hPa SE 6.4 km/h 20.4 km/h 24% 0.0 mm CLR
15:49 30.3 °C 7.5 °C 1013.9 hPa NE 6.9 km/h 9.3 km/h 24% 0.0 mm CLR
15:54 30.3 °C 7.5 °C 1013.9 hPa ESE 6.9 km/h 11.9 km/h 24% 0.0 mm CLR
15:59 30.4 °C 8.2 °C 1013.9 hPa NE 6.9 km/h 20.9 km/h 25% 0.0 mm CLR
16:04 30.5 °C 9.9 °C 1013.7 hPa SE 6.9 km/h 10.0 km/h 28% 0.0 mm CLR
16:10 30.3 °C 9.8 °C 1013.7 hPa East 9.7 km/h 20.9 km/h 28% 0.0 mm CLR
16:14 30.3 °C 11.3 °C 1013.7 hPa East 10.0 km/h 37.0 km/h 31% 0.0 mm CLR
16:19 30.1 °C 11.6 °C 1013.8 hPa ESE 14.0 km/h 29.6 km/h 32% 0.0 mm CLR
16:24 29.8 °C 11.8 °C 1013.8 hPa SSE 14.0 km/h 29.6 km/h 33% 0.0 mm CLR
16:29 29.6 °C 11.2 °C 1013.8 hPa ESE 18.3 km/h 29.6 km/h 32% 0.0 mm CLR
16:34 29.7 °C 11.2 °C 1013.6 hPa ESE 18.3 km/h 27.0 km/h 32% 0.0 mm CLR
16:39 29.5 °C 11.1 °C 1013.6 hPa ESE 18.0 km/h 25.1 km/h 32% 0.0 mm CLR
16:44 29.1 °C 10.2 °C 1013.6 hPa ESE 18.0 km/h 38.9 km/h 31% 0.0 mm CLR
16:49 29.1 °C 10.2 °C 1013.6 hPa SSE 22.0 km/h 25.9 km/h 31% 0.0 mm CLR
16:54 29.3 °C 10.4 °C 1013.6 hPa SSE 22.0 km/h 22.2 km/h 31% 0.0 mm CLR
16:59 29.4 °C 10.0 °C 1013.6 hPa SE 17.2 km/h 27.8 km/h 30% 0.0 mm CLR
17:04 29.2 °C 9.8 °C 1013.6 hPa SE 17.2 km/h 27.0 km/h 30% 0.0 mm CLR
17:09 29.3 °C 9.9 °C 1013.6 hPa SSE 18.3 km/h 24.1 km/h 30% 0.0 mm CLR
17:14 29.6 °C 9.7 °C 1013.6 hPa ESE 18.3 km/h 27.8 km/h 29% 0.0 mm CLR
17:19 29.6 °C 10.2 °C 1013.5 hPa ESE 15.6 km/h 27.8 km/h 30% 0.0 mm CLR
17:24 29.6 °C 9.7 °C 1013.5 hPa SE 15.6 km/h 19.0 km/h 29% 0.0 mm CLR
17:29 29.4 °C 9.5 °C 1013.5 hPa ESE 17.2 km/h 24.1 km/h 29% 0.0 mm CLR
17:34 29.3 °C 9.4 °C 1013.4 hPa SE 17.2 km/h 25.9 km/h 29% 0.0 mm CLR
17:39 29.3 °C 9.4 °C 1013.4 hPa ESE 18.3 km/h 24.1 km/h 29% 0.0 mm CLR
17:44 29.4 °C 9.5 °C 1013.4 hPa SE 18.3 km/h 24.1 km/h 29% 0.0 mm CLR
17:49 29.4 °C 9.5 °C 1013.3 hPa ESE 15.6 km/h 29.6 km/h 29% 0.0 mm CLR
17:54 29.2 °C 9.3 °C 1013.3 hPa SE 15.6 km/h 20.4 km/h 29% 0.0 mm CLR
17:59 29.4 °C 9.5 °C 1013.3 hPa SE 15.6 km/h 27.0 km/h 29% 0.0 mm CLR
18:04 29.2 °C 9.3 °C 1013.3 hPa SSE 15.6 km/h 24.1 km/h 29% 0.0 mm CLR
18:09 28.9 °C 9.1 °C 1013.3 hPa ESE 16.4 km/h 38.9 km/h 29% 0.0 mm CLR
18:14 28.9 °C 9.1 °C 1013.3 hPa ESE 16.4 km/h 24.1 km/h 29% 0.0 mm CLR
18:19 29.1 °C 9.2 °C 1013.2 hPa SE 16.1 km/h 24.1 km/h 29% 0.0 mm CLR
18:24 29.3 °C 8.9 °C 1013.2 hPa ESE 16.1 km/h 20.4 km/h 28% 0.0 mm CLR
18:29 29.2 °C 8.3 °C 1013.2 hPa ESE 13.7 km/h 25.9 km/h 27% 0.0 mm CLR
18:34 29.1 °C 8.7 °C 1013.2 hPa SE 13.7 km/h 25.9 km/h 28% 0.0 mm CLR
18:39 28.9 °C 8.6 °C 1013.2 hPa SE 17.2 km/h 18.5 km/h 28% 0.0 mm CLR
18:44 29.1 °C 8.7 °C 1013.2 hPa ESE 17.2 km/h 18.5 km/h 28% 0.0 mm CLR
18:49 29.0 °C 8.7 °C 1013.2 hPa SE 13.0 km/h 22.2 km/h 28% 0.0 mm CLR
18:54 28.8 °C 8.4 °C 1013.2 hPa ENE 13.0 km/h 27.8 km/h 28% 0.0 mm CLR
18:59 28.6 °C 8.8 °C 1013.2 hPa ESE 18.0 km/h 27.8 km/h 29% 0.0 mm CLR
19:04 28.8 °C 9.0 °C 1013.3 hPa ESE 18.0 km/h 16.7 km/h 29% 0.0 mm CLR
19:09 28.6 °C 8.8 °C 1013.3 hPa SE 14.8 km/h 21.7 km/h 29% 0.0 mm CLR
19:14 28.6 °C 8.8 °C 1013.3 hPa SE 14.8 km/h 25.9 km/h 29% 0.0 mm CLR
19:19 28.4 °C 8.7 °C 1013.4 hPa ESE 15.6 km/h 25.9 km/h 29% 0.0 mm CLR
19:24 28.3 °C 8.6 °C 1013.4 hPa East 15.6 km/h 24.1 km/h 29% 0.0 mm CLR
19:29 28.1 °C 8.4 °C 1013.4 hPa ESE 17.2 km/h 25.6 km/h 29% 0.0 mm CLR
19:34 28.2 °C 8.5 °C 1013.5 hPa SE 17.2 km/h 22.2 km/h 29% 0.0 mm CLR
19:39 28.3 °C 8.6 °C 1013.5 hPa SE 13.7 km/h 23.7 km/h 29% 0.0 mm CLR
19:44 28.1 °C 8.4 °C 1013.5 hPa SE 13.7 km/h 29.6 km/h 29% 0.0 mm CLR
19:49 28.2 °C 8.5 °C 1013.7 hPa ESE 14.8 km/h 22.2 km/h 29% 0.0 mm CLR
19:54 28.1 °C 8.4 °C 1013.7 hPa SE 14.8 km/h 18.5 km/h 29% 0.0 mm CLR
19:59 27.9 °C 8.2 °C 1013.7 hPa SE 13.0 km/h 20.4 km/h 29% 0.0 mm CLR
20:04 27.9 °C 8.2 °C 1013.8 hPa SE 13.0 km/h 14.8 km/h 29% 0.0 mm CLR
20:09 27.9 °C 8.2 °C 1013.8 hPa SE 12.2 km/h 13.0 km/h 29% 0.0 mm CLR
20:14 27.8 °C 8.1 °C 1013.8 hPa ESE 12.2 km/h 14.8 km/h 29% 0.0 mm CLR
20:19 27.7 °C 8.1 °C 1014.0 hPa SE 11.1 km/h 18.5 km/h 29% 0.0 mm CLR
20:24 27.6 °C 7.9 °C 1014.0 hPa SE 11.1 km/h 13.0 km/h 29% 0.0 mm CLR
20:29 27.3 °C 7.7 °C 1014.0 hPa NE 11.9 km/h 20.4 km/h 29% 0.0 mm CLR
20:34 27.2 °C 7.6 °C 1014.1 hPa SE 11.9 km/h 14.8 km/h 29% 0.0 mm CLR
20:39 27.1 °C 8.0 °C 1014.1 hPa SE 11.9 km/h 14.8 km/h 30% 0.0 mm CLR
20:44 27.1 °C 7.6 °C 1014.1 hPa ESE 11.9 km/h 13.7 km/h 29% 0.0 mm CLR
20:49 27.0 °C 7.4 °C 1014.3 hPa ESE 9.5 km/h 14.8 km/h 29% 0.0 mm CLR
20:54 26.8 °C 7.3 °C 1014.3 hPa East 9.5 km/h 14.8 km/h 29% 0.0 mm CLR
20:59 26.7 °C 7.2 °C 1014.3 hPa East 10.0 km/h 13.0 km/h 29% 0.0 mm CLR
21:04 26.5 °C 7.5 °C 1014.4 hPa ESE 10.0 km/h 16.7 km/h 30% 0.0 mm CLR
21:09 26.3 °C 7.3 °C 1014.4 hPa East 11.1 km/h 16.1 km/h 30% 0.0 mm CLR
21:14 26.2 °C 7.2 °C 1014.4 hPa SE 11.1 km/h 14.8 km/h 30% 0.0 mm CLR
21:19 26.0 °C 7.1 °C 1014.5 hPa SE 11.9 km/h 18.5 km/h 30% 0.0 mm CLR
21:24 25.8 °C 7.4 °C 1014.5 hPa ESE 11.9 km/h 18.5 km/h 31% 0.0 mm CLR
21:29 25.7 °C 7.3 °C 1014.5 hPa ESE 12.2 km/h 17.2 km/h 31% 0.0 mm CLR
21:34 25.4 °C 7.1 °C 1014.6 hPa ESE 12.2 km/h 20.4 km/h 31% 0.0 mm CLR
21:39 25.3 °C 6.9 °C 1014.6 hPa ESE 13.0 km/h 19.8 km/h 31% 0.0 mm CLR
21:44 25.2 °C 7.3 °C 1014.6 hPa ESE 13.0 km/h 14.8 km/h 32% 0.0 mm CLR
21:49 25.1 °C 6.8 °C 1014.8 hPa East 12.2 km/h 20.4 km/h 31% 0.0 mm CLR
21:54 24.9 °C 7.1 °C 1014.8 hPa ESE 12.2 km/h 13.0 km/h 32% 0.0 mm CLR
21:59 24.8 °C 7.0 °C 1014.8 hPa ESE 10.0 km/h 14.8 km/h 32% 0.0 mm CLR
22:04 24.7 °C 6.9 °C 1014.9 hPa ESE 10.0 km/h 14.8 km/h 32% 0.0 mm CLR
22:09 24.7 °C 6.4 °C 1014.9 hPa ESE 11.1 km/h 16.7 km/h 31% 0.0 mm CLR
22:14 24.6 °C 6.3 °C 1014.9 hPa ESE 11.1 km/h 16.7 km/h 31% 0.0 mm CLR
22:19 24.5 °C 6.7 °C 1015.3 hPa ESE 11.9 km/h 14.8 km/h 32% 0.0 mm CLR
22:24 24.4 °C 6.6 °C 1015.3 hPa ESE 11.9 km/h 11.1 km/h 32% 0.0 mm CLR
22:29 24.3 °C 7.0 °C 1015.3 hPa ENE 8.7 km/h 13.0 km/h 33% 0.0 mm CLR
22:34 24.2 °C 6.9 °C 1015.6 hPa ESE 8.7 km/h 9.3 km/h 33% 0.0 mm CLR
22:39 24.1 °C 6.8 °C 1015.6 hPa East 6.4 km/h 11.1 km/h 33% 0.0 mm CLR
22:44 23.9 °C 6.7 °C 1015.6 hPa East 6.4 km/h 9.3 km/h 33% 0.0 mm CLR
22:49 23.8 °C 6.6 °C 1015.9 hPa East 5.8 km/h 5.6 km/h 33% 0.0 mm CLR
22:54 23.8 °C 6.6 °C 1015.9 hPa NE 5.8 km/h 5.0 km/h 33% 0.0 mm CLR
22:59 23.7 °C 6.9 °C 1015.9 hPa NNE 3.2 km/h 9.5 km/h 34% 0.0 mm CLR
23:04 23.5 °C 7.2 °C 1016.1 hPa NE 3.2 km/h 11.9 km/h 35% 0.0 mm CLR
23:09 23.3 °C 7.8 °C 1016.1 hPa NNE 8.4 km/h 8.7 km/h 37% 0.0 mm CLR
23:14 23.2 °C 8.1 °C 1016.1 hPa NE 8.4 km/h 13.0 km/h 38% 0.0 mm CLR
23:19 23.1 °C 8.0 °C 1016.4 hPa NE 9.5 km/h 13.0 km/h 38% 0.0 mm CLR
23:24 23.1 °C 8.4 °C 1016.4 hPa NNE 9.5 km/h 12.2 km/h 39% 0.0 mm CLR
23:29 22.9 °C 8.6 °C 1016.4 hPa North 8.7 km/h 11.1 km/h 40% 0.0 mm CLR
23:34 22.8 °C 8.5 °C 1016.5 hPa NNE 8.7 km/h 11.1 km/h 40% 0.0 mm CLR
23:39 22.7 °C 8.8 °C 1016.5 hPa NE 7.6 km/h 13.0 km/h 41% 0.0 mm CLR
23:44 22.6 °C 8.7 °C 1016.5 hPa NE 7.6 km/h 13.0 km/h 41% 0.0 mm CLR
23:49 22.4 °C 8.5 °C 1016.5 hPa NNE 8.4 km/h 11.1 km/h 41% 0.0 mm CLR
23:54 22.3 °C 8.8 °C 1016.5 hPa NE 8.4 km/h 7.4 km/h 42% 0.0 mm CLR
23:59 22.2 °C 8.7 °C 1016.5 hPa NE 5.8 km/h 7.6 km/h 42% 0.0 mm CLR
Murcia-Puente Tocinos, España
Compliments of Weather Underground - 3.5 mb

La estación de MeteoMurcia.com, publica sus datos en los siguientes proyectos:

Weather Underground PWS IMURCIAP2 Meteoclimatic www.awekas.at

W3Counter
Web Analytics